Bootle, United Kingdom
Current Conditions -  °F | °C
As of 4:20 PM on Friday 31 Oct 2014 (Local Time) from EGGP Reporting Station
Clear Clear  
Wind Chill: 64°   Ceiling: Unl
Heat Index: 64°   Visibility: 6mi
Dew Point: 57°   Wind: 16mph
Humidity: 77%   Direction: 160°SSE
Pressure: 29.77"   Gusts: NA
Location:  53.45°N, 2.99°W
Report Text: EGGP 311620Z 16014KT CAVOK 18/14 Q1008
Loading
Personal Weather Stations






























Interactive Weather Map
Tropical Storm Tracking
New forecast layout! Learn more

10-Day Weather Forecast

Advertisements
Track Severe Weather on mobile